NY Terminal Aviation Weather Discussion (AFD) - Prepared: 408 PM EST TUE JAN 27 2015
LOW PRES E OF CAPE COD WILL TRACK NWD INTO THE GULF OF ME TNGT AND 
INTO THE MARITIMES ON WED.

MAINLY VFR ACROSS THE CITY AND WRN ARPTS THRU 23Z...THEN STRATUS MAY 
AGAIN DEVELOP THEREAFTER. SOME LGT SNOW OR FLURRIES POSSIBLE. 

ELSEWHERE...MAINLY MVFR THRU THE TAF PERIOD WITH POCKETS OF IFR OR 
LOWER IN LGT TO MDT SNOW EARLY THIS EVE.

NW WINDS AROUND 330 TRUE THRU THE TAF PERIOD. STRONGEST FLOW THRU
THIS EVE.

5 Day General Aviation Outlook:

.OUTLOOK FOR 18Z WEDNESDAY THROUGH SATURDAY...
.WED...VFR. NW WINDS 15-25KT.
.THU NGT...MVFR OR LOWER IN SNOW. 
.FRI...MVFR POSSIBLE IN THE MRNG WITH SNOW. NW WINDS 20-30KT.
.SAT...VFR.
.SUN...MVFR OR LOWER POSSIBLE.


NY Metro Terminal Aviation Weather Summary: (Explanation of Color Coding)
NOTE: All Wind Directions are TRUE (add 13 degrees for magnetic directions). Tail and Crosswind Calculations do account for the magnetic deviation of runways.

Click on the Airport Below for Specific Information at that Terminal

TAF Overview JFK TAF LGA TAF EWR TAF TEB TAF HPN TAF ISP TAF

NOTE - A Recent Software Upgrade has caused TAF graphics not to Update.

Hope to have this fixed soon (1/18/15)

Jump to AirSpace Impacts Section Condensed "lite" version of SPA page
**************************************************************************************
KJFK Terminal Weather: (Wind Directions Are True, Except Where Noted, ADD 13 degrees for Magnetic)

5MIN KJFK 272250Z 35011KT 10SM FEW042 BKN170 BKN250 
     M03/M09 A2971 210 63 -1900 360/11 RMK AO2 SLP060 T10331094 $
5MIN KJFK 272245Z 35010KT 10SM CLR M03/M09 A2971 210 63
      -1900 360/10 RMK AO2 SLP059 T10331094 $
********************************************
****        MAGNETIC DIRECTIONS         ****
********************************************
KJFK 01/27/2015 23:03:30 GMT 360 14 G19KT
KJFK 01/27/2015 23:01:30 GMT 350 14 G19KT
KJFK 01/27/2015 22:59:30 GMT 350 12 G19KT
KJFK 01/27/2015 22:57:30 GMT 360 10 KT
KJFK 01/27/2015 22:55:31 GMT 360 10 KT
KJFK 01/27/2015 22:53:31 GMT 350 11 KT
KJFK 01/27/2015 22:51:31 GMT 350 10 KT
KJFK 01/27/2015 22:49:31 GMT 360 10 KT
KJFK 01/27/2015 22:47:31 GMT 350 10 KT
KJFK 01/27/2015 22:45:31 GMT 350 10 KT
SAUS70 KJFK 272300 RRQ
METAR KJFK 272251Z 35013KT 10SM FEW042 BKN170 BKN250 M03/M09 A2971 RMK
     AO2 SLP061 T10331094 $
FTNA35 KJFK 272039
KJFK 272034Z 2721/2824 33018G28KT P6SM SCT020 BKN100
     FM280000 33017G27KT P6SM -SHSN BKN020
     FM280300 32015G25KT P6SM BKN025
     FM281400 32017G27KT P6SM SCT025 SCT250
     FM282200 32012KT P6SM SCT250
KJFK FCSTER COMMENTS: MAY REMAIN VFR TNGT IF STRATUS DOES NOT 
REDEVELOP. 

jfk

JFK Hourly Forecast Temperature (C)

JFK Hourly TMPS
**************************************************************************************
KLGA Terminal Weather: (Wind Directions Are True, Except Where Noted, ADD 13 degrees for Magnetic)

5MIN KLGA 272250Z 36012KT 10SM FEW025 SCT100 BKN150 
     BKN250 M03/M09 A2970 230 63 -1900 020/12 RMK AO2 SLP057 T10331094 $
5MIN KLGA 272245Z 35014G21KT 10SM CLR M03/M09 A2970 230
      63 -1900 010/14G21 RMK AO2 SLP055 T10331094 $
********************************************
****        MAGNETIC DIRECTIONS         ****
********************************************
KLGA 01/27/2015 23:04:01 GMT 010 17 G21KT
KLGA 01/27/2015 23:02:01 GMT 010 16 G21KT
KLGA 01/27/2015 22:59:52 GMT 010 17 G21KT
KLGA 01/27/2015 22:57:52 GMT 010 18 KT
KLGA 01/27/2015 22:55:51 GMT 010 15 KT
KLGA 01/27/2015 22:53:52 GMT 360 15 KT
KLGA 01/27/2015 22:52:01 GMT 020 15 KT
KLGA 01/27/2015 22:50:01 GMT 020 19 KT
KLGA 01/27/2015 22:48:01 GMT 020 19 KT
KLGA 01/27/2015 22:46:00 GMT 020 17 KT
SAUS70 KLGA 272300
METAR KLGA 272251Z 36013KT 10SM FEW025 SCT100 BKN150 BKN250 M03/M09
     A2970 RMK AO2 SLP057 T10331094 $
FTUS80 KLGA 272036 AAB
KLGA 272034Z 2721/2818 34018G28KT P6SM SCT020 BKN100
     FM280000 33017G27KT P6SM -SHSN BKN020
     FM280300 32015G25KT P6SM BKN025
     FM281400 33016G26KT P6SM SCT025 SCT250
KLGA FCSTER COMMENTS: MAY REMAIN VFR TNGT IF STRATUS DOES NOT 
REDEVELOP.

lga


**************************************************************************************

KEWR Terminal Weather: (Wind Directions Are True, Except Where Noted, ADD 13 degrees for Magnetic)

5MIN KEWR 272250Z 32008KT 10SM FEW025 BKN150 BKN250 
     M03/M09 A2971 220 63 -1800 330/08 RMK AO2 SLP060 T10281089 $
5MIN KEWR 272245Z 33010KT 10SM FEW025 BKN150 OVC250 
     M03/M09 A2970 220 63 -1800 340/10 RMK AO2 SLP058 T10281089 $
********************************************
****        MAGNETIC DIRECTIONS         ****
********************************************
KEWR 01/27/2015 23:03:35 GMT 340 10 KT
KEWR 01/27/2015 23:01:35 GMT 350 10 KT
KEWR 01/27/2015 22:59:35 GMT 340 10 KT
KEWR 01/27/2015 22:57:35 GMT 350 13 G24KT
KEWR 01/27/2015 22:55:35 GMT 350 16 G24KT
KEWR 01/27/2015 22:53:35 GMT 360 15 G24KT
KEWR 01/27/2015 22:51:35 GMT 360 17 G24KT
KEWR 01/27/2015 22:49:35 GMT 360 18 G24KT
KEWR 01/27/2015 22:47:35 GMT 360 19 KT
KEWR 01/27/2015 22:45:35 GMT 350 17 G22KT
SAUS70 KEWR 272300 RRA
METAR KEWR 272251Z 32009KT 10SM FEW025 BKN150 BKN250 M03/M09 A2971 RMK
     AO2 SLP060 T10281089 $
FTUS80 KEWR 272036 AAA
KEWR 272034Z 2721/2824 33015G25KT P6SM SCT020 BKN100
     FM272200 33014G24KT P6SM -SHSN BKN020
     FM280300 32013G23KT P6SM BKN025
     FM281400 32015G25KT P6SM SCT025 SCT250
     FM282200 32010KT P6SM SCT250
KEWR FCSTER COMMENTS: MAY REMAIN VFR TNGT IF STRATUS DOES NOT 
REDEVELOP.

ewr
Afternoon EWR Haze Potential Forecast: KEWR Haze Forecast Not Available at This Time
IS NOT AVAILABLE AT THIS TIME


******************************************************************************

KTEB Terminal Weather:
SAUS80 KTEB 272300
METAR KTEB 272251Z 02005KT 10SM BKN035 M03/M09 A2970 RMK AO2 SLP058
     T10331094
FTUS80 KTEB 272036 AAB
KTEB 272034Z 2721/2818 33014G22KT P6SM SCT020 BKN100
     FM280000 33012G20KT P6SM -SHSN BKN020
     FM280300 32011KT P6SM BKN025
     FM281400 33012G18KT P6SM SCT025 SCT250
KTEB FCSTER COMMENTS: MAY REMAIN VFR TNGT IF STRATUS DOES NOT 
REDEVELOP. 

teb

 


**************************************************************************************

KHPN Terminal Weather:
SAUS70 KHPN 272300 RRA
METAR KHPN 272256Z 34017G24KT 10SM SCT055 M06/M11 A2967 RMK AO2 SLP059
     T10611111
FTUS80 KHPN 272036 AAA
KHPN 272034Z 2721/2818 33018G30KT P6SM SCT020 BKN100
      TEMPO 2721/2724 5SM -SN BKN020
     FM280000 33014G24KT 6SM -SN BKN020
     FM280300 32012G20KT P6SM BKN025
     FM281400 33014G22KT P6SM SCT025 SCT250 AMD NOT SKED
KHPN FCSTER COMMENTS: MAY REMAIN VFR TNGT IF STRATUS DOES NOT 
REDEVELOP.

HPN


******************************************************************************

KISP Terminal Weather:
SAUS70 KISP 272300 RRA
METAR KISP 272256Z 34017G29KT 8SM FEW002 SCT065 OVC110 M05/M11 A2964 RMK
     AO2 PK WND 33032/2206 SLP038 T10501111 $
FTUS80 KISP 272036 AAA
KISP 272034Z 2721/2818 33018G30KT 6SM -SN BLSN SCT020 BKN035
      TEMPO 2721/2724 2SM -SN BKN020
     FM280000 33015G25KT 6SM -SN BLSN BKN020
     FM280300 33014G24KT P6SM -SHSN BKN020
     FM281400 33015G25KT P6SM BKN025
KISP FCSTER COMMENTS: EDGE OF LGT SNOW MAY REMAIN JUST E OF THE ARPT 
THIS EVE.

ISP

 


ZNY SWAP Season Information

(ZNY SWAP STATEMENT) (Click for PDF File) (ZNY BRIEFING) (Click for PDF File)

*******************************************************
***        NY AIR ROUTE TRAFFIC CONTROL CENTER      ***
***                DAILY SWAP STATEMENT             ***
*******************************************************
NY AIR ROUTE TRAFFIC CONTROL CENTER
DAILY SWAP STATEMENT
SUNDAY OCTOBER 26, 2014
ROUTINE SWAP STATEMENTS ARE ISSUED 
BETWEEN APRIL 1 AND SEPTEMBER 30.
SWAP STATEMENTS WILL BE ISSUED IF TS ARE 
EXPECTED TO IMPACT OPERATIONS.
$$



N90 AirSpace Impacts

N90 Compression Forecast

N90 Compression Forecast

N90 Icing Forecast

N90 Icing Forecast

N90 Thunderstorm Forecast (Issued if Expected)

N90 Day 2 SWAP Outlook

 

Surface Weather Map

Surface Weather map

National Collaborative Convective Forecast Product (CCFP) Forecasts (Mar-Oct)


Vertical Wind Profile
Untitled Document